sensor_id;sensor_type;location;lat;lon;timestamp;P1;durP1;ratioP1;P2;durP2;ratioP2
19828;SDS011;10075;50.924;4.396;2022-11-15T00:02:10;27.20;;;18.93;;
19828;SDS011;10075;50.924;4.396;2022-11-15T00:04:39;25.95;;;19.50;;
19828;SDS011;10075;50.924;4.396;2022-11-15T00:07:06;26.48;;;19.88;;
19828;SDS011;10075;50.924;4.396;2022-11-15T00:09:33;30.83;;;21.35;;
19828;SDS011;10075;50.924;4.396;2022-11-15T00:12:00;28.58;;;20.95;;
19828;SDS011;10075;50.924;4.396;2022-11-15T00:14:27;26.13;;;19.65;;
19828;SDS011;10075;50.924;4.396;2022-11-15T00:16:54;25.37;;;20.03;;
19828;SDS011;10075;50.924;4.396;2022-11-15T00:19:21;25.98;;;21.35;;
19828;SDS011;10075;50.924;4.396;2022-11-15T00:21:49;28.88;;;20.10;;
19828;SDS011;10075;50.924;4.396;2022-11-15T00:24:16;31.88;;;21.05;;
19828;SDS011;10075;50.924;4.396;2022-11-15T00:26:43;30.75;;;20.50;;
19828;SDS011;10075;50.924;4.396;2022-11-15T00:29:10;30.30;;;21.30;;
19828;SDS011;10075;50.924;4.396;2022-11-15T00:31:37;29.67;;;21.10;;
19828;SDS011;10075;50.924;4.396;2022-11-15T00:34:04;26.42;;;20.33;;
19828;SDS011;10075;50.924;4.396;2022-11-15T00:36:32;29.27;;;20.57;;
19828;SDS011;10075;50.924;4.396;2022-11-15T00:39:02;26.40;;;20.20;;
19828;SDS011;10075;50.924;4.396;2022-11-15T00:41:29;30.42;;;19.25;;
19828;SDS011;10075;50.924;4.396;2022-11-15T00:43:56;28.10;;;21.20;;
19828;SDS011;10075;50.924;4.396;2022-11-15T00:46:24;28.95;;;20.50;;
19828;SDS011;10075;50.924;4.396;2022-11-15T00:48:51;31.08;;;20.80;;
19828;SDS011;10075;50.924;4.396;2022-11-15T00:51:17;26.93;;;20.53;;
19828;SDS011;10075;50.924;4.396;2022-11-15T00:53:44;31.27;;;19.83;;
19828;SDS011;10075;50.924;4.396;2022-11-15T00:56:13;29.00;;;21.50;;
19828;SDS011;10075;50.924;4.396;2022-11-15T00:58:40;30.00;;;21.20;;
19828;SDS011;10075;50.924;4.396;2022-11-15T01:01:08;27.97;;;20.33;;
19828;SDS011;10075;50.924;4.396;2022-11-15T01:03:36;28.10;;;20.50;;
19828;SDS011;10075;50.924;4.396;2022-11-15T01:06:04;29.60;;;21.08;;
19828;SDS011;10075;50.924;4.396;2022-11-15T01:08:32;27.70;;;20.87;;
19828;SDS011;10075;50.924;4.396;2022-11-15T01:11:00;26.55;;;20.38;;
19828;SDS011;10075;50.924;4.396;2022-11-15T01:13:30;28.55;;;19.20;;
19828;SDS011;10075;50.924;4.396;2022-11-15T01:15:58;29.08;;;20.65;;
19828;SDS011;10075;50.924;4.396;2022-11-15T01:18:25;27.73;;;20.50;;
19828;SDS011;10075;50.924;4.396;2022-11-15T01:20:52;33.97;;;21.42;;
19828;SDS011;10075;50.924;4.396;2022-11-15T01:23:19;27.38;;;20.40;;
19828;SDS011;10075;50.924;4.396;2022-11-15T01:25:46;29.55;;;21.13;;
19828;SDS011;10075;50.924;4.396;2022-11-15T01:28:13;36.87;;;22.77;;
19828;SDS011;10075;50.924;4.396;2022-11-15T01:30:41;30.20;;;21.10;;
19828;SDS011;10075;50.924;4.396;2022-11-15T01:33:08;35.05;;;23.33;;
19828;SDS011;10075;50.924;4.396;2022-11-15T01:35:37;33.38;;;22.38;;
19828;SDS011;10075;50.924;4.396;2022-11-15T01:38:05;29.08;;;20.88;;
19828;SDS011;10075;50.924;4.396;2022-11-15T01:40:32;34.47;;;21.85;;
19828;SDS011;10075;50.924;4.396;2022-11-15T01:42:59;34.30;;;22.85;;
19828;SDS011;10075;50.924;4.396;2022-11-15T01:45:42;30.25;;;20.25;;
19828;SDS011;10075;50.924;4.396;2022-11-15T01:48:11;32.88;;;21.90;;
19828;SDS011;10075;50.924;4.396;2022-11-15T01:50:38;30.40;;;21.70;;
19828;SDS011;10075;50.924;4.396;2022-11-15T01:53:05;30.05;;;21.70;;
19828;SDS011;10075;50.924;4.396;2022-11-15T01:55:32;33.05;;;22.33;;
19828;SDS011;10075;50.924;4.396;2022-11-15T01:58:00;31.52;;;22.20;;
19828;SDS011;10075;50.924;4.396;2022-11-15T02:00:30;32.15;;;20.80;;
19828;SDS011;10075;50.924;4.396;2022-11-15T02:03:00;33.05;;;19.98;;
19828;SDS011;10075;50.924;4.396;2022-11-15T02:05:28;28.70;;;19.50;;
19828;SDS011;10075;50.924;4.396;2022-11-15T02:07:56;28.37;;;19.60;;
19828;SDS011;10075;50.924;4.396;2022-11-15T02:10:23;28.27;;;17.83;;
19828;SDS011;10075;50.924;4.396;2022-11-15T02:12:51;27.93;;;18.30;;
19828;SDS011;10075;50.924;4.396;2022-11-15T02:15:19;28.83;;;19.80;;
19828;SDS011;10075;50.924;4.396;2022-11-15T02:17:49;28.88;;;19.50;;
19828;SDS011;10075;50.924;4.396;2022-11-15T02:20:32;29.10;;;20.03;;
19828;SDS011;10075;50.924;4.396;2022-11-15T02:26:25;31.88;;;20.02;;
19828;SDS011;10075;50.924;4.396;2022-11-15T02:29:15;32.00;;;20.38;;
19828;SDS011;10075;50.924;4.396;2022-11-15T02:31:55;33.22;;;21.08;;
19828;SDS011;10075;50.924;4.396;2022-11-15T02:34:31;33.60;;;21.92;;
19828;SDS011;10075;50.924;4.396;2022-11-15T02:37:07;33.50;;;21.77;;
19828;SDS011;10075;50.924;4.396;2022-11-15T02:39:42;33.50;;;21.67;;
19828;SDS011;10075;50.924;4.396;2022-11-15T02:42:17;34.37;;;22.33;;
19828;SDS011;10075;50.924;4.396;2022-11-15T02:45:05;30.77;;;21.40;;
19828;SDS011;10075;50.924;4.396;2022-11-15T02:47:41;29.67;;;21.17;;
19828;SDS011;10075;50.924;4.396;2022-11-15T02:50:10;36.30;;;21.13;;
19828;SDS011;10075;50.924;4.396;2022-11-15T02:52:40;30.13;;;20.67;;
19828;SDS011;10075;50.924;4.396;2022-11-15T02:57:55;30.37;;;20.37;;
19828;SDS011;10075;50.924;4.396;2022-11-15T03:00:33;26.87;;;19.50;;
19828;SDS011;10075;50.924;4.396;2022-11-15T03:03:08;27.08;;;18.63;;
19828;SDS011;10075;50.924;4.396;2022-11-15T03:05:51;26.02;;;17.25;;
19828;SDS011;10075;50.924;4.396;2022-11-15T03:08:26;26.60;;;17.33;;
19828;SDS011;10075;50.924;4.396;2022-11-15T03:11:01;25.60;;;17.57;;
19828;SDS011;10075;50.924;4.396;2022-11-15T03:13:34;22.65;;;16.95;;
19828;SDS011;10075;50.924;4.396;2022-11-15T03:16:06;25.27;;;17.00;;
19828;SDS011;10075;50.924;4.396;2022-11-15T03:18:40;24.05;;;16.08;;
19828;SDS011;10075;50.924;4.396;2022-11-15T03:21:08;24.98;;;16.48;;
19828;SDS011;10075;50.924;4.396;2022-11-15T03:23:39;24.92;;;16.50;;
19828;SDS011;10075;50.924;4.396;2022-11-15T03:26:07;22.40;;;15.75;;
19828;SDS011;10075;50.924;4.396;2022-11-15T03:28:38;20.33;;;15.17;;
19828;SDS011;10075;50.924;4.396;2022-11-15T03:31:08;23.10;;;14.77;;
19828;SDS011;10075;50.924;4.396;2022-11-15T03:33:53;20.55;;;13.73;;
19828;SDS011;10075;50.924;4.396;2022-11-15T03:36:22;23.38;;;12.98;;
19828;SDS011;10075;50.924;4.396;2022-11-15T03:38:51;16.77;;;11.80;;
19828;SDS011;10075;50.924;4.396;2022-11-15T03:41:22;18.02;;;10.52;;
19828;SDS011;10075;50.924;4.396;2022-11-15T03:43:55;17.23;;;10.43;;
19828;SDS011;10075;50.924;4.396;2022-11-15T03:46:27;15.25;;;9.93;;
19828;SDS011;10075;50.924;4.396;2022-11-15T03:49:01;13.95;;;9.25;;
19828;SDS011;10075;50.924;4.396;2022-11-15T03:51:33;16.45;;;9.00;;
19828;SDS011;10075;50.924;4.396;2022-11-15T03:54:02;18.38;;;8.48;;
19828;SDS011;10075;50.924;4.396;2022-11-15T03:56:30;18.65;;;8.85;;
19828;SDS011;10075;50.924;4.396;2022-11-15T03:58:57;13.93;;;10.00;;
19828;SDS011;10075;50.924;4.396;2022-11-15T04:01:24;15.33;;;10.00;;
19828;SDS011;10075;50.924;4.396;2022-11-15T04:03:52;14.00;;;9.47;;
19828;SDS011;10075;50.924;4.396;2022-11-15T04:06:20;14.97;;;9.47;;
19828;SDS011;10075;50.924;4.396;2022-11-15T04:08:47;15.77;;;9.90;;
19828;SDS011;10075;50.924;4.396;2022-11-15T04:11:14;15.75;;;9.75;;
19828;SDS011;10075;50.924;4.396;2022-11-15T04:13:41;15.25;;;9.40;;
19828;SDS011;10075;50.924;4.396;2022-11-15T04:16:08;18.58;;;9.80;;
19828;SDS011;10075;50.924;4.396;2022-11-15T04:18:35;15.33;;;9.70;;
19828;SDS011;10075;50.924;4.396;2022-11-15T04:21:02;14.52;;;8.98;;
19828;SDS011;10075;50.924;4.396;2022-11-15T04:23:48;13.47;;;9.67;;
19828;SDS011;10075;50.924;4.396;2022-11-15T04:26:32;16.42;;;9.02;;
19828;SDS011;10075;50.924;4.396;2022-11-15T04:29:00;17.10;;;8.95;;
19828;SDS011;10075;50.924;4.396;2022-11-15T04:31:45;14.55;;;8.50;;
19828;SDS011;10075;50.924;4.396;2022-11-15T04:34:11;13.45;;;8.68;;
19828;SDS011;10075;50.924;4.396;2022-11-15T04:36:38;17.73;;;8.60;;
19828;SDS011;10075;50.924;4.396;2022-11-15T04:39:23;12.00;;;8.40;;
19828;SDS011;10075;50.924;4.396;2022-11-15T04:41:50;11.73;;;8.07;;
19828;SDS011;10075;50.924;4.396;2022-11-15T04:44:17;17.67;;;8.50;;
19828;SDS011;10075;50.924;4.396;2022-11-15T04:46:44;14.57;;;8.07;;
19828;SDS011;10075;50.924;4.396;2022-11-15T04:49:11;13.35;;;8.20;;
19828;SDS011;10075;50.924;4.396;2022-11-15T04:51:38;13.07;;;7.27;;
19828;SDS011;10075;50.924;4.396;2022-11-15T04:54:05;14.90;;;6.27;;
19828;SDS011;10075;50.924;4.396;2022-11-15T04:56:33;12.40;;;7.20;;
19828;SDS011;10075;50.924;4.396;2022-11-15T04:59:00;11.68;;;6.60;;
19828;SDS011;10075;50.924;4.396;2022-11-15T05:01:27;11.73;;;8.13;;
19828;SDS011;10075;50.924;4.396;2022-11-15T05:03:54;12.83;;;7.43;;
19828;SDS011;10075;50.924;4.396;2022-11-15T05:06:39;12.47;;;7.17;;
19828;SDS011;10075;50.924;4.396;2022-11-15T05:09:06;13.57;;;6.67;;
19828;SDS011;10075;50.924;4.396;2022-11-15T05:11:34;14.43;;;6.60;;
19828;SDS011;10075;50.924;4.396;2022-11-15T05:14:01;12.40;;;7.13;;
19828;SDS011;10075;50.924;4.396;2022-11-15T05:16:28;13.73;;;7.60;;
19828;SDS011;10075;50.924;4.396;2022-11-15T05:18:55;14.82;;;7.10;;
19828;SDS011;10075;50.924;4.396;2022-11-15T05:21:22;12.03;;;7.10;;
19828;SDS011;10075;50.924;4.396;2022-11-15T05:23:49;13.77;;;7.00;;
19828;SDS011;10075;50.924;4.396;2022-11-15T05:26:17;11.67;;;6.40;;
19828;SDS011;10075;50.924;4.396;2022-11-15T05:28:46;13.63;;;7.17;;
19828;SDS011;10075;50.924;4.396;2022-11-15T05:31:18;14.03;;;6.57;;
19828;SDS011;10075;50.924;4.396;2022-11-15T05:33:45;10.23;;;6.27;;
19828;SDS011;10075;50.924;4.396;2022-11-15T05:36:13;11.80;;;6.63;;
19828;SDS011;10075;50.924;4.396;2022-11-15T05:38:45;9.60;;;5.93;;
19828;SDS011;10075;50.924;4.396;2022-11-15T05:41:13;17.93;;;6.77;;
19828;SDS011;10075;50.924;4.396;2022-11-15T05:43:41;12.90;;;6.27;;
19828;SDS011;10075;50.924;4.396;2022-11-15T05:46:11;12.27;;;5.53;;
19828;SDS011;10075;50.924;4.396;2022-11-15T05:48:40;8.97;;;6.00;;
19828;SDS011;10075;50.924;4.396;2022-11-15T05:51:09;12.60;;;5.77;;
19828;SDS011;10075;50.924;4.396;2022-11-15T05:53:37;12.80;;;5.82;;
19828;SDS011;10075;50.924;4.396;2022-11-15T05:56:05;13.93;;;5.70;;
19828;SDS011;10075;50.924;4.396;2022-11-15T05:58:32;8.87;;;5.37;;
19828;SDS011;10075;50.924;4.396;2022-11-15T06:01:00;13.17;;;5.53;;
19828;SDS011;10075;50.924;4.396;2022-11-15T06:03:28;11.40;;;6.20;;
19828;SDS011;10075;50.924;4.396;2022-11-15T06:05:56;9.07;;;5.13;;
19828;SDS011;10075;50.924;4.396;2022-11-15T06:08:23;13.30;;;6.00;;
19828;SDS011;10075;50.924;4.396;2022-11-15T06:10:50;12.50;;;6.10;;
19828;SDS011;10075;50.924;4.396;2022-11-15T06:13:17;11.33;;;5.70;;
19828;SDS011;10075;50.924;4.396;2022-11-15T06:15:44;11.87;;;5.90;;
19828;SDS011;10075;50.924;4.396;2022-11-15T06:18:11;11.00;;;5.63;;
19828;SDS011;10075;50.924;4.396;2022-11-15T06:20:39;9.10;;;5.47;;
19828;SDS011;10075;50.924;4.396;2022-11-15T06:23:06;13.25;;;5.85;;
19828;SDS011;10075;50.924;4.396;2022-11-15T06:25:33;12.93;;;6.60;;
19828;SDS011;10075;50.924;4.396;2022-11-15T06:28:01;11.27;;;5.83;;
19828;SDS011;10075;50.924;4.396;2022-11-15T06:30:27;17.17;;;7.43;;
19828;SDS011;10075;50.924;4.396;2022-11-15T06:32:58;15.50;;;6.97;;
19828;SDS011;10075;50.924;4.396;2022-11-15T06:35:27;15.20;;;6.20;;
19828;SDS011;10075;50.924;4.396;2022-11-15T06:37:56;15.60;;;8.13;;
19828;SDS011;10075;50.924;4.396;2022-11-15T06:40:28;18.73;;;7.93;;
19828;SDS011;10075;50.924;4.396;2022-11-15T06:42:57;15.13;;;7.90;;
19828;SDS011;10075;50.924;4.396;2022-11-15T06:45:25;20.37;;;9.20;;
19828;SDS011;10075;50.924;4.396;2022-11-15T06:47:52;21.40;;;9.77;;
19828;SDS011;10075;50.924;4.396;2022-11-15T06:50:19;13.23;;;6.47;;
19828;SDS011;10075;50.924;4.396;2022-11-15T06:52:47;6.97;;;4.77;;
19828;SDS011;10075;50.924;4.396;2022-11-15T06:55:16;19.57;;;5.80;;
19828;SDS011;10075;50.924;4.396;2022-11-15T06:57:46;19.03;;;5.57;;
19828;SDS011;10075;50.924;4.396;2022-11-15T07:00:14;8.73;;;5.23;;
19828;SDS011;10075;50.924;4.396;2022-11-15T07:02:42;8.37;;;5.27;;
19828;SDS011;10075;50.924;4.396;2022-11-15T07:05:09;9.17;;;6.00;;
19828;SDS011;10075;50.924;4.396;2022-11-15T07:07:37;13.10;;;5.80;;
19828;SDS011;10075;50.924;4.396;2022-11-15T07:10:05;9.90;;;5.93;;
19828;SDS011;10075;50.924;4.396;2022-11-15T07:12:34;11.87;;;6.63;;
19828;SDS011;10075;50.924;4.396;2022-11-15T07:15:01;12.43;;;5.73;;
19828;SDS011;10075;50.924;4.396;2022-11-15T07:17:28;10.13;;;6.47;;
19828;SDS011;10075;50.924;4.396;2022-11-15T07:19:55;10.83;;;5.87;;
19828;SDS011;10075;50.924;4.396;2022-11-15T07:22:22;11.30;;;5.53;;
19828;SDS011;10075;50.924;4.396;2022-11-15T07:24:49;11.83;;;5.73;;
19828;SDS011;10075;50.924;4.396;2022-11-15T07:27:17;21.30;;;6.15;;
19828;SDS011;10075;50.924;4.396;2022-11-15T07:29:45;13.10;;;5.93;;
19828;SDS011;10075;50.924;4.396;2022-11-15T07:32:12;7.47;;;5.30;;
19828;SDS011;10075;50.924;4.396;2022-11-15T07:34:39;14.30;;;6.07;;
19828;SDS011;10075;50.924;4.396;2022-11-15T07:37:06;13.30;;;6.40;;
19828;SDS011;10075;50.924;4.396;2022-11-15T07:39:33;9.70;;;5.30;;
19828;SDS011;10075;50.924;4.396;2022-11-15T07:42:00;10.63;;;5.37;;
19828;SDS011;10075;50.924;4.396;2022-11-15T07:44:46;15.83;;;6.20;;
19828;SDS011;10075;50.924;4.396;2022-11-15T07:47:13;9.87;;;5.80;;
19828;SDS011;10075;50.924;4.396;2022-11-15T07:49:40;9.37;;;4.70;;
19828;SDS011;10075;50.924;4.396;2022-11-15T07:52:07;8.27;;;4.83;;
19828;SDS011;10075;50.924;4.396;2022-11-15T07:54:34;10.73;;;4.97;;
19828;SDS011;10075;50.924;4.396;2022-11-15T07:57:01;8.77;;;4.47;;
19828;SDS011;10075;50.924;4.396;2022-11-15T07:59:28;11.03;;;4.67;;
19828;SDS011;10075;50.924;4.396;2022-11-15T08:01:56;11.93;;;4.20;;
19828;SDS011;10075;50.924;4.396;2022-11-15T08:04:23;8.57;;;4.17;;
19828;SDS011;10075;50.924;4.396;2022-11-15T08:06:50;9.63;;;4.30;;
19828;SDS011;10075;50.924;4.396;2022-11-15T08:09:17;10.53;;;4.33;;
19828;SDS011;10075;50.924;4.396;2022-11-15T08:11:44;6.23;;;4.20;;
19828;SDS011;10075;50.924;4.396;2022-11-15T08:14:11;9.47;;;4.30;;
19828;SDS011;10075;50.924;4.396;2022-11-15T08:16:38;6.77;;;3.70;;
19828;SDS011;10075;50.924;4.396;2022-11-15T08:19:06;6.87;;;3.70;;
19828;SDS011;10075;50.924;4.396;2022-11-15T08:21:33;12.53;;;4.07;;
19828;SDS011;10075;50.924;4.396;2022-11-15T08:24:02;7.20;;;3.70;;
19828;SDS011;10075;50.924;4.396;2022-11-15T08:26:29;9.03;;;3.60;;
19828;SDS011;10075;50.924;4.396;2022-11-15T08:28:56;8.30;;;3.13;;
19828;SDS011;10075;50.924;4.396;2022-11-15T08:31:23;10.60;;;3.33;;
19828;SDS011;10075;50.924;4.396;2022-11-15T08:33:50;9.40;;;3.15;;
19828;SDS011;10075;50.924;4.396;2022-11-15T08:36:19;7.30;;;3.43;;
19828;SDS011;10075;50.924;4.396;2022-11-15T08:38:46;5.60;;;2.60;;
19828;SDS011;10075;50.924;4.396;2022-11-15T08:41:13;9.03;;;2.50;;
19828;SDS011;10075;50.924;4.396;2022-11-15T08:43:47;7.93;;;2.40;;
19828;SDS011;10075;50.924;4.396;2022-11-15T08:46:14;5.30;;;2.40;;
19828;SDS011;10075;50.924;4.396;2022-11-15T08:48:41;7.67;;;2.83;;
19828;SDS011;10075;50.924;4.396;2022-11-15T08:51:08;5.17;;;2.50;;
19828;SDS011;10075;50.924;4.396;2022-11-15T08:53:36;12.40;;;4.43;;
19828;SDS011;10075;50.924;4.396;2022-11-15T08:56:04;6.00;;;2.13;;
19828;SDS011;10075;50.924;4.396;2022-11-15T08:58:34;10.33;;;2.60;;
19828;SDS011;10075;50.924;4.396;2022-11-15T09:01:01;9.23;;;2.40;;
19828;SDS011;10075;50.924;4.396;2022-11-15T09:03:29;9.37;;;2.63;;
19828;SDS011;10075;50.924;4.396;2022-11-15T09:05:57;7.70;;;2.63;;
19828;SDS011;10075;50.924;4.396;2022-11-15T09:08:25;6.93;;;2.37;;
19828;SDS011;10075;50.924;4.396;2022-11-15T09:10:57;4.70;;;2.00;;
19828;SDS011;10075;50.924;4.396;2022-11-15T09:13:24;9.53;;;2.27;;
19828;SDS011;10075;50.924;4.396;2022-11-15T09:15:51;5.27;;;2.00;;
19828;SDS011;10075;50.924;4.396;2022-11-15T09:18:18;6.03;;;3.23;;
19828;SDS011;10075;50.924;4.396;2022-11-15T09:20:47;9.87;;;2.00;;
19828;SDS011;10075;50.924;4.396;2022-11-15T09:23:14;7.93;;;1.77;;
19828;SDS011;10075;50.924;4.396;2022-11-15T09:25:41;5.97;;;1.97;;
19828;SDS011;10075;50.924;4.396;2022-11-15T09:28:09;4.53;;;1.98;;
19828;SDS011;10075;50.924;4.396;2022-11-15T09:30:36;9.17;;;1.80;;
19828;SDS011;10075;50.924;4.396;2022-11-15T09:33:07;5.63;;;1.80;;
19828;SDS011;10075;50.924;4.396;2022-11-15T09:35:34;5.73;;;1.70;;
19828;SDS011;10075;50.924;4.396;2022-11-15T09:38:01;7.70;;;2.00;;
19828;SDS011;10075;50.924;4.396;2022-11-15T09:40:29;8.50;;;2.10;;
19828;SDS011;10075;50.924;4.396;2022-11-15T09:43:03;12.40;;;6.10;;
19828;SDS011;10075;50.924;4.396;2022-11-15T09:45:40;9.87;;;8.27;;
19828;SDS011;10075;50.924;4.396;2022-11-15T09:48:26;6.10;;;1.90;;
19828;SDS011;10075;50.924;4.396;2022-11-15T09:51:06;7.30;;;1.60;;
19828;SDS011;10075;50.924;4.396;2022-11-15T09:53:41;7.15;;;1.80;;
19828;SDS011;10075;50.924;4.396;2022-11-15T09:56:16;5.90;;;1.67;;
19828;SDS011;10075;50.924;4.396;2022-11-15T09:58:47;5.85;;;1.65;;
19828;SDS011;10075;50.924;4.396;2022-11-15T10:01:27;7.40;;;1.97;;
19828;SDS011;10075;50.924;4.396;2022-11-15T10:04:03;3.83;;;1.17;;
19828;SDS011;10075;50.924;4.396;2022-11-15T10:06:31;7.78;;;2.45;;
19828;SDS011;10075;50.924;4.396;2022-11-15T10:09:04;11.02;;;1.95;;
19828;SDS011;10075;50.924;4.396;2022-11-15T10:11:34;10.98;;;2.17;;
19828;SDS011;10075;50.924;4.396;2022-11-15T10:14:04;9.70;;;2.20;;
19828;SDS011;10075;50.924;4.396;2022-11-15T10:16:42;8.93;;;2.63;;
19828;SDS011;10075;50.924;4.396;2022-11-15T10:19:42;10.80;;;2.17;;
19828;SDS011;10075;50.924;4.396;2022-11-15T10:22:24;9.33;;;2.00;;
19828;SDS011;10075;50.924;4.396;2022-11-15T10:24:58;10.50;;;2.40;;
19828;SDS011;10075;50.924;4.396;2022-11-15T10:27:37;9.15;;;1.92;;
19828;SDS011;10075;50.924;4.396;2022-11-15T10:30:08;10.38;;;1.80;;
19828;SDS011;10075;50.924;4.396;2022-11-15T10:32:40;6.90;;;1.52;;
19828;SDS011;10075;50.924;4.396;2022-11-15T10:35:16;11.13;;;2.00;;
19828;SDS011;10075;50.924;4.396;2022-11-15T10:37:48;9.93;;;1.80;;
19828;SDS011;10075;50.924;4.396;2022-11-15T10:40:16;10.20;;;1.70;;
19828;SDS011;10075;50.924;4.396;2022-11-15T10:42:45;6.70;;;1.25;;
19828;SDS011;10075;50.924;4.396;2022-11-15T10:45:26;11.15;;;1.50;;
19828;SDS011;10075;50.924;4.396;2022-11-15T10:48:14;9.75;;;1.75;;
19828;SDS011;10075;50.924;4.396;2022-11-15T10:50:50;6.75;;;1.50;;
19828;SDS011;10075;50.924;4.396;2022-11-15T10:53:21;5.68;;;1.60;;
19828;SDS011;10075;50.924;4.396;2022-11-15T10:55:53;6.20;;;1.80;;
19828;SDS011;10075;50.924;4.396;2022-11-15T10:58:29;7.57;;;1.70;;
19828;SDS011;10075;50.924;4.396;2022-11-15T11:01:08;10.43;;;1.67;;
19828;SDS011;10075;50.924;4.396;2022-11-15T11:03:39;6.45;;;1.33;;
19828;SDS011;10075;50.924;4.396;2022-11-15T11:06:08;7.00;;;1.70;;
19828;SDS011;10075;50.924;4.396;2022-11-15T11:08:37;9.95;;;1.55;;
19828;SDS011;10075;50.924;4.396;2022-11-15T11:11:04;6.45;;;1.85;;
19828;SDS011;10075;50.924;4.396;2022-11-15T11:13:32;6.15;;;1.40;;
19828;SDS011;10075;50.924;4.396;2022-11-15T11:16:09;10.85;;;2.08;;
19828;SDS011;10075;50.924;4.396;2022-11-15T11:19:11;8.65;;;2.05;;
19828;SDS011;10075;50.924;4.396;2022-11-15T11:21:49;5.13;;;1.35;;
19828;SDS011;10075;50.924;4.396;2022-11-15T11:24:25;7.57;;;1.58;;
19828;SDS011;10075;50.924;4.396;2022-11-15T11:27:03;12.77;;;1.83;;
19828;SDS011;10075;50.924;4.396;2022-11-15T11:29:46;9.07;;;1.92;;
19828;SDS011;10075;50.924;4.396;2022-11-15T11:32:28;8.98;;;1.88;;
19828;SDS011;10075;50.924;4.396;2022-11-15T11:35:08;7.00;;;1.50;;
19828;SDS011;10075;50.924;4.396;2022-11-15T11:37:42;8.48;;;1.60;;
19828;SDS011;10075;50.924;4.396;2022-11-15T11:40:20;12.30;;;1.58;;
19828;SDS011;10075;50.924;4.396;2022-11-15T11:42:56;11.43;;;1.80;;
19828;SDS011;10075;50.924;4.396;2022-11-15T11:45:41;7.22;;;1.60;;
19828;SDS011;10075;50.924;4.396;2022-11-15T11:48:23;6.43;;;1.42;;
19828;SDS011;10075;50.924;4.396;2022-11-15T11:51:08;10.85;;;1.73;;
19828;SDS011;10075;50.924;4.396;2022-11-15T11:53:41;8.18;;;1.48;;
19828;SDS011;10075;50.924;4.396;2022-11-15T11:56:16;7.30;;;1.50;;
19828;SDS011;10075;50.924;4.396;2022-11-15T11:58:48;8.82;;;1.58;;
19828;SDS011;10075;50.924;4.396;2022-11-15T12:01:17;5.78;;;1.73;;
19828;SDS011;10075;50.924;4.396;2022-11-15T12:03:50;10.27;;;2.08;;
19828;SDS011;10075;50.924;4.396;2022-11-15T12:06:23;7.30;;;1.40;;
19828;SDS011;10075;50.924;4.396;2022-11-15T12:08:58;7.50;;;2.17;;
19828;SDS011;10075;50.924;4.396;2022-11-15T12:11:33;6.80;;;1.23;;
19828;SDS011;10075;50.924;4.396;2022-11-15T12:14:11;6.47;;;1.63;;
19828;SDS011;10075;50.924;4.396;2022-11-15T12:16:46;11.82;;;1.67;;
19828;SDS011;10075;50.924;4.396;2022-11-15T12:19:13;8.05;;;1.40;;
19828;SDS011;10075;50.924;4.396;2022-11-15T12:21:43;5.55;;;1.38;;
19828;SDS011;10075;50.924;4.396;2022-11-15T12:24:15;7.35;;;1.85;;
19828;SDS011;10075;50.924;4.396;2022-11-15T12:26:48;8.52;;;1.70;;
19828;SDS011;10075;50.924;4.396;2022-11-15T12:29:20;4.97;;;1.50;;
19828;SDS011;10075;50.924;4.396;2022-11-15T12:31:52;3.47;;;1.52;;
19828;SDS011;10075;50.924;4.396;2022-11-15T12:34:39;10.98;;;2.42;;
19828;SDS011;10075;50.924;4.396;2022-11-15T12:40:21;10.80;;;2.80;;
19828;SDS011;10075;50.924;4.396;2022-11-15T12:43:00;8.77;;;2.75;;
19828;SDS011;10075;50.924;4.396;2022-11-15T12:45:37;11.85;;;2.53;;
19828;SDS011;10075;50.924;4.396;2022-11-15T12:51:13;12.30;;;2.83;;
19828;SDS011;10075;50.924;4.396;2022-11-15T12:53:42;8.75;;;2.72;;
19828;SDS011;10075;50.924;4.396;2022-11-15T12:56:17;11.82;;;3.08;;
19828;SDS011;10075;50.924;4.396;2022-11-15T12:58:49;13.82;;;2.72;;
19828;SDS011;10075;50.924;4.396;2022-11-15T13:04:26;6.88;;;2.70;;
19828;SDS011;10075;50.924;4.396;2022-11-15T13:06:56;7.75;;;1.77;;
19828;SDS011;10075;50.924;4.396;2022-11-15T13:09:51;6.35;;;1.60;;
19828;SDS011;10075;50.924;4.396;2022-11-15T13:15:32;9.45;;;2.00;;
19828;SDS011;10075;50.924;4.396;2022-11-15T13:21:01;7.65;;;2.55;;
19828;SDS011;10075;50.924;4.396;2022-11-15T13:23:52;8.48;;;2.22;;
19828;SDS011;10075;50.924;4.396;2022-11-15T13:26:21;8.05;;;2.38;;
19828;SDS011;10075;50.924;4.396;2022-11-15T13:28:50;6.32;;;1.80;;
19828;SDS011;10075;50.924;4.396;2022-11-15T13:31:24;7.07;;;2.08;;
19828;SDS011;10075;50.924;4.396;2022-11-15T13:33:55;5.70;;;1.85;;
19828;SDS011;10075;50.924;4.396;2022-11-15T13:36:25;10.55;;;2.33;;
19828;SDS011;10075;50.924;4.396;2022-11-15T13:38:55;5.97;;;1.85;;
19828;SDS011;10075;50.924;4.396;2022-11-15T13:41:26;4.32;;;1.25;;
19828;SDS011;10075;50.924;4.396;2022-11-15T13:43:54;5.85;;;1.48;;
19828;SDS011;10075;50.924;4.396;2022-11-15T13:46:22;6.65;;;1.25;;
19828;SDS011;10075;50.924;4.396;2022-11-15T13:48:52;2.67;;;1.40;;
19828;SDS011;10075;50.924;4.396;2022-11-15T13:51:21;4.82;;;1.25;;
19828;SDS011;10075;50.924;4.396;2022-11-15T13:53:55;6.30;;;1.48;;
19828;SDS011;10075;50.924;4.396;2022-11-15T13:56:26;4.32;;;1.23;;
19828;SDS011;10075;50.924;4.396;2022-11-15T13:58:55;7.25;;;1.50;;
19828;SDS011;10075;50.924;4.396;2022-11-15T14:01:22;6.10;;;1.30;;
19828;SDS011;10075;50.924;4.396;2022-11-15T14:03:54;6.53;;;1.35;;
19828;SDS011;10075;50.924;4.396;2022-11-15T14:06:23;4.70;;;1.40;;
19828;SDS011;10075;50.924;4.396;2022-11-15T14:11:59;10.80;;;1.90;;
19828;SDS011;10075;50.924;4.396;2022-11-15T14:14:28;2.28;;;1.25;;
19828;SDS011;10075;50.924;4.396;2022-11-15T14:16:56;5.03;;;1.75;;
19828;SDS011;10075;50.924;4.396;2022-11-15T14:19:34;7.10;;;2.00;;
19828;SDS011;10075;50.924;4.396;2022-11-15T14:22:13;8.95;;;2.33;;
19828;SDS011;10075;50.924;4.396;2022-11-15T14:24:46;4.57;;;1.63;;
19828;SDS011;10075;50.924;4.396;2022-11-15T14:27:31;2.75;;;1.42;;
19828;SDS011;10075;50.924;4.396;2022-11-15T14:29:59;7.82;;;1.67;;
19828;SDS011;10075;50.924;4.396;2022-11-15T14:32:27;3.90;;;1.55;;
19828;SDS011;10075;50.924;4.396;2022-11-15T14:34:56;4.18;;;1.55;;
19828;SDS011;10075;50.924;4.396;2022-11-15T14:37:24;2.80;;;1.30;;
19828;SDS011;10075;50.924;4.396;2022-11-15T14:39:53;5.20;;;1.77;;
19828;SDS011;10075;50.924;4.396;2022-11-15T14:42:21;3.65;;;1.40;;
19828;SDS011;10075;50.924;4.396;2022-11-15T14:44:50;4.93;;;1.83;;
19828;SDS011;10075;50.924;4.396;2022-11-15T14:47:18;5.82;;;1.35;;
19828;SDS011;10075;50.924;4.396;2022-11-15T14:49:45;4.88;;;1.60;;
19828;SDS011;10075;50.924;4.396;2022-11-15T14:52:23;6.13;;;2.20;;
19828;SDS011;10075;50.924;4.396;2022-11-15T14:54:52;5.35;;;2.58;;
19828;SDS011;10075;50.924;4.396;2022-11-15T14:57:19;7.43;;;1.98;;
19828;SDS011;10075;50.924;4.396;2022-11-15T14:59:46;4.00;;;1.50;;
19828;SDS011;10075;50.924;4.396;2022-11-15T15:02:16;6.03;;;2.90;;
19828;SDS011;10075;50.924;4.396;2022-11-15T15:04:45;8.80;;;4.70;;
19828;SDS011;10075;50.924;4.396;2022-11-15T15:07:13;14.02;;;6.18;;
19828;SDS011;10075;50.924;4.396;2022-11-15T15:09:40;5.90;;;3.40;;
19828;SDS011;10075;50.924;4.396;2022-11-15T15:12:11;5.70;;;2.33;;
19828;SDS011;10075;50.924;4.396;2022-11-15T15:14:44;6.93;;;2.50;;
19828;SDS011;10075;50.924;4.396;2022-11-15T15:17:11;4.38;;;2.08;;
19828;SDS011;10075;50.924;4.396;2022-11-15T15:19:39;5.50;;;2.20;;
19828;SDS011;10075;50.924;4.396;2022-11-15T15:22:09;6.88;;;2.35;;